M I D A S
Marine Information and Data Acquisition System
Tripno 1898 of the Zeeleeuw from 2010-06-10 07:17:39 to 2010-06-10 16:38:57
Back to CruiseResearch ActivitiesStationsMapUnderway DataData graphs

EquipmentUnitsComment
TimeDGPSUTC
LatitudeDGPSDM.mWGS84
LongitudeDGPSDM.mWGS84
HeadingGyrodeg 
SOGDGPSknotsSpeed over ground
COGDGPSdegCourse over ground
DepthEcho soundermeters200 kHz
Missing or incorrect values are displayed as -999
Navigation data collected by the RV Zeeleeuw from 2010-06-10 07:52:38 to 2010-06-10 16:42:46
Time Latitude Longitude Heading SOG COG Depth
2010-06-10 07:53:46 51°13.675 2°55.871 108.5 4.1 285 -999
2010-06-10 07:54:46 51°13.71 2°55.764 129 4.8 306 -999
2010-06-10 07:55:46 51°13.78 2°55.671 150.8 5.8 329 -999
2010-06-10 07:56:46 51°13.852 2°55.611 164.8 4.1 339 11.5
2010-06-10 07:57:46 51°13.911 2°55.602 195.6 3.1 10 11.7
2010-06-10 07:58:44 51°13.946 2°55.626 220.8 1.7 35 12.1
2010-06-10 07:59:43 51°13.953 2°55.625 253.8 1.4 264 12.2
2010-06-10 08:00:43 51°13.978 2°55.558 322.9 5 322 11.7
2010-06-10 08:01:43 51°14.089 2°55.462 337.6 9.2 334 11.7
2010-06-10 08:02:42 51°14.234 2°55.349 335.3 10.3 333 10.6
2010-06-10 08:03:43 51°14.394 2°55.205 330.1 11.6 326 11.2
2010-06-10 08:04:43 51°14.564 2°55.012 327.1 13.1 325 12.2
2010-06-10 08:05:43 51°14.743 2°54.818 329.6 12.9 324 12.5
2010-06-10 08:06:43 51°14.917 2°54.616 324.5 13 322 12.4
2010-06-10 08:07:42 51°15.081 2°54.406 324.3 12.9 321 10.7
2010-06-10 08:08:43 51°15.25 2°54.184 324.7 12.9 321 11.2
2010-06-10 08:09:42 51°15.413 2°53.972 324.5 12.9 321 11.6
2010-06-10 08:10:42 51°15.578 2°53.755 325.1 12.8 322 11.9
2010-06-10 08:11:42 51°15.762 2°53.586 339.6 12.7 336 12.4
2010-06-10 08:12:42 51°15.957 2°53.456 340.9 12.7 337 12.4
2010-06-10 08:13:42 51°16.15 2°53.323 340 12.6 337 12.7
2010-06-10 08:14:42 51°16.343 2°53.191 339.6 12.7 337 12.9
2010-06-10 08:15:42 51°16.536 2°53.058 339.5 12.6 336 12.4
2010-06-10 08:16:43 51°16.731 2°52.923 339.2 12.5 336 11.7
2010-06-10 08:17:43 51°16.921 2°52.791 339.8 12.4 337 10.3
2010-06-10 08:18:43 51°17.112 2°52.66 340 12.4 340 10.4
2010-06-10 08:19:42 51°17.311 2°52.643 13.9 12.1 20 10.8
2010-06-10 08:20:42 51°17.482 2°52.828 38.5 12.6 39 11.1
2010-06-10 08:21:42 51°17.634 2°53.059 51.8 12.7 54 11
2010-06-10 08:22:42 51°17.735 2°53.357 61.6 12.8 62 10.8
2010-06-10 08:23:42 51°17.832 2°53.659 60.7 12.8 63 10.8
2010-06-10 08:24:43 51°17.933 2°53.963 60.6 12.8 62 10.7
2010-06-10 08:25:42 51°18.033 2°54.254 59.9 12.7 61 10.6
2010-06-10 08:26:43 51°18.137 2°54.556 59.6 12.7 60 10.6
2010-06-10 08:27:42 51°18.238 2°54.846 59.5 12.7 61 10.7
2010-06-10 08:28:43 51°18.351 2°55.137 54.2 12.7 56 10.9
2010-06-10 08:29:42 51°18.471 2°55.409 53.8 12.7 55 10.8
2010-06-10 08:30:42 51°18.593 2°55.686 53.8 12.8 55 10.8
2010-06-10 08:31:42 51°18.714 2°55.965 54.3 12.8 54 10.8
2010-06-10 08:32:42 51°18.834 2°56.243 54.2 12.7 56 10.8
2010-06-10 08:33:43 51°18.957 2°56.525 54.7 12.8 56 10.9
2010-06-10 08:34:42 51°19.076 2°56.799 53.9 12.8 55 11.2
2010-06-10 08:35:43 51°19.2 2°57.081 54.6 12.8 55 11.1
2010-06-10 08:36:42 51°19.318 2°57.355 54.5 12.8 55 11.1
2010-06-10 08:37:42 51°19.441 2°57.633 53.9 12.8 55 11.1
2010-06-10 08:38:42 51°19.559 2°57.92 58.3 13 58 11.1
2010-06-10 08:39:43 51°19.667 2°58.227 59.9 13 61 11.1
2010-06-10 08:40:42 51°19.772 2°58.524 59.8 13.1 60 11.1
2010-06-10 08:41:43 51°19.882 2°58.83 59.2 13.1 60 11.1
2010-06-10 08:42:42 51°19.988 2°59.128 59.6 13.1 61 10.9
2010-06-10 08:43:43 51°20.068 2°59.458 70.3 13.2 72 11.1
2010-06-10 08:44:43 51°20.139 2°59.791 70.2 13.2 71 11
2010-06-10 08:45:42 51°20.21 3°0.117 69.7 13.2 70 10.9
2010-06-10 08:46:42 51°20.282 3°0.448 69.4 13.2 71 10.8
2010-06-10 08:47:42 51°20.356 3°0.781 69.8 13.2 70 11
2010-06-10 08:48:42 51°20.432 3°1.114 69.8 13.3 70 11
2010-06-10 08:49:43 51°20.509 3°1.453 69.1 13.3 70 10.9
2010-06-10 08:50:43 51°20.586 3°1.786 69.6 13.4 69 10.9
2010-06-10 08:51:42 51°20.663 3°2.115 69 13.4 69 10.8
2010-06-10 08:52:42 51°20.741 3°2.45 69.2 13.5 70 11.1
2010-06-10 08:53:43 51°20.819 3°2.792 69.3 13.5 71 11
2010-06-10 08:54:43 51°20.899 3°3.128 69.2 13.5 68 10.9
2010-06-10 08:55:43 51°20.977 3°3.465 69 13.5 69 11.3
2010-06-10 08:56:43 51°21.057 3°3.802 69.2 13.6 70 11.6
2010-06-10 08:57:43 51°21.138 3°4.139 69.3 13.6 69 11.6
2010-06-10 08:58:43 51°21.219 3°4.477 69.3 13.7 69 11.8
2010-06-10 08:59:43 51°21.299 3°4.817 69.1 13.6 71 11.6
2010-06-10 09:00:42 51°21.378 3°5.151 69.6 13.7 69 11.7
2010-06-10 09:01:42 51°21.459 3°5.493 69.3 13.8 69 11.8
2010-06-10 09:02:43 51°21.541 3°5.842 69.8 13.9 70 12
2010-06-10 09:03:42 51°21.621 3°6.183 69.5 13.9 70 12
2010-06-10 09:04:43 51°21.705 3°6.534 68.3 13.9 70 12.4
2010-06-10 09:05:43 51°21.778 3°6.885 72.4 13.9 73 12.7
2010-06-10 09:06:43 51°21.844 3°7.241 75.9 14 76 12.9
2010-06-10 09:07:42 51°21.899 3°7.596 76.4 14 77 13
2010-06-10 09:08:42 51°21.955 3°7.96 76.6 14.1 77 13
2010-06-10 09:09:42 51°21.999 3°8.33 81.9 14.2 81 13.3
2010-06-10 09:10:43 51°22.037 3°8.709 81.8 14.3 80 13.4
2010-06-10 09:11:43 51°22.076 3°9.084 81.3 14.4 80 14
2010-06-10 09:12:43 51°22.114 3°9.459 81.4 14.3 82 14.4
2010-06-10 09:13:43 51°22.154 3°9.836 81.3 14.4 81 14.9
2010-06-10 09:14:43 51°22.198 3°10.214 78.6 14.5 79 15.9
2010-06-10 09:15:43 51°22.269 3°10.58 70.4 14.3 69 20.5
2010-06-10 09:16:43 51°22.349 3°10.914 68.3 13.1 69 17.8
2010-06-10 09:17:43 51°22.428 3°11.186 59.4 9.9 63 17.1
2010-06-10 09:18:43 51°22.492 3°11.387 57.5 6.5 65 17.3
2010-06-10 09:19:43 51°22.507 3°11.462 42 1.5 110 17
2010-06-10 09:20:45 51°22.494 3°11.493 58 1.2 144 17.2
2010-06-10 09:21:45 51°22.481 3°11.511 83.1 1 134 4.6
2010-06-10 09:22:43 51°22.474 3°11.532 107.3 1 106 17.2
2010-06-10 09:23:42 51°22.47 3°11.559 125.5 1.1 104 17.2
2010-06-10 09:24:43 51°22.464 3°11.591 135.4 1.3 114 17.2
2010-06-10 09:25:42 51°22.457 3°11.625 139.5 1.4 111 17.2
2010-06-10 09:26:43 51°22.449 3°11.66 139.3 1.4 112 17.3
2010-06-10 09:27:43 51°22.441 3°11.696 133.5 1.4 110 17.2
2010-06-10 09:28:43 51°22.433 3°11.735 125.8 1.5 111 17.6
2010-06-10 09:29:43 51°22.425 3°11.776 120.3 1.5 109 17.6
2010-06-10 09:30:42 51°22.416 3°11.817 120.6 1.7 108 17.6
2010-06-10 09:31:43 51°22.405 3°11.88 104.2 3.4 100 17.7
2010-06-10 09:32:42 51°22.41 3°11.984 60 4.7 71 17.5
2010-06-10 09:33:43 51°22.466 3°12.049 340.4 4.5 355 16.6
2010-06-10 09:34:42 51°22.558 3°11.954 318.7 8.4 326 16.3
2010-06-10 09:35:43 51°22.694 3°11.801 319.7 10.3 325 15.8
2010-06-10 09:36:42 51°22.821 3°11.658 319.4 8 327 15.5
2010-06-10 09:37:43 51°22.897 3°11.557 298.4 4.5 305 15.3
2010-06-10 09:38:43 51°22.928 3°11.446 285 6.1 288 15
2010-06-10 09:39:43 51°22.979 3°11.252 291.1 8.7 295 14.7
2010-06-10 09:40:43 51°23.044 3°11.04 293.2 9 296 14.7
2010-06-10 09:41:42 51°23.119 3°10.838 298.6 9 304 14.3
2010-06-10 09:42:43 51°23.205 3°10.634 299.5 9.1 304 14.4
2010-06-10 09:43:42 51°23.287 3°10.436 299.3 8.2 305 15
2010-06-10 09:44:43 51°23.359 3°10.337 322.3 4.4 341 15.5
2010-06-10 09:45:42 51°23.427 3°10.32 334.7 4 357 15.8
2010-06-10 09:46:43 51°23.492 3°10.332 347.4 3.8 14 16
2010-06-10 09:47:42 51°23.553 3°10.373 4.6 4.4 31 15.8
2010-06-10 09:48:43 51°23.614 3°10.459 31.1 5 51 15.9
2010-06-10 09:49:43 51°23.655 3°10.563 41.5 4.4 62 15.7
2010-06-10 09:50:43 51°23.684 3°10.665 46 4.1 68 15.9
2010-06-10 09:51:43 51°23.709 3°10.764 49.1 4 70 15.6
2010-06-10 09:52:43 51°23.732 3°10.865 49 4.1 69 15.8
2010-06-10 09:53:43 51°23.757 3°10.968 47.8 4.3 69 16
2010-06-10 09:54:43 51°23.787 3°11.074 46.4 4.5 66 16.1
2010-06-10 09:55:43 51°23.817 3°11.182 47.1 4.5 66 16.1
2010-06-10 09:56:43 51°23.849 3°11.291 46.8 4.5 66 16.2
2010-06-10 09:57:43 51°23.879 3°11.4 47.4 4.5 66 16.8
2010-06-10 09:58:43 51°23.909 3°11.512 50.8 4.6 67 16.8
2010-06-10 09:59:43 51°23.934 3°11.629 59.8 4.7 74 17
2010-06-10 10:00:43 51°23.954 3°11.752 66.2 4.7 77 16.8
2010-06-10 10:01:43 51°23.966 3°11.877 75.7 4.8 85 17.2
2010-06-10 10:02:43 51°23.973 3°12.003 75.9 4.7 83 16.3
2010-06-10 10:03:43 51°23.981 3°12.129 76.2 4.7 85 15.9
2010-06-10 10:04:43 51°23.989 3°12.254 76.7 4.7 86 15.7
2010-06-10 10:05:43 51°23.997 3°12.38 74 4.8 82 15.6
2010-06-10 10:06:43 51°24.009 3°12.505 73.4 4.7 81 16.3
2010-06-10 10:07:43 51°24.02 3°12.63 73.1 4.7 82 15.6
2010-06-10 10:08:43 51°24.031 3°12.755 73.4 4.7 83 16.2
2010-06-10 10:09:43 51°24.041 3°12.877 74.1 4.6 83 15.8
2010-06-10 10:10:43 51°24.051 3°12.995 73 4.4 82 15.5
2010-06-10 10:11:43 51°24.059 3°13.111 74.8 4.4 86 15.2
2010-06-10 10:12:43 51°24.065 3°13.222 74.5 4.1 85 15.1
2010-06-10 10:13:43 51°24.071 3°13.33 74.4 4.1 84 15.1
2010-06-10 10:14:43 51°24.076 3°13.437 74.7 4 85 15
2010-06-10 10:15:43 51°24.083 3°13.542 71.9 4 84 15
2010-06-10 10:16:43 51°24.089 3°13.648 75 3.9 85 14.8
2010-06-10 10:17:43 51°24.094 3°13.752 73.3 3.9 85 14.9
2010-06-10 10:18:43 51°24.101 3°13.854 74.5 3.8 85 14.9
2010-06-10 10:19:43 51°24.102 3°13.957 92.5 3.8 94 15.2
2010-06-10 10:20:43 51°24.094 3°14.058 108.6 3.8 102 15.2
2010-06-10 10:21:43 51°24.079 3°14.157 116.6 3.8 105 14.1
2010-06-10 10:22:43 51°24.06 3°14.248 126.2 3.5 110 13.7
2010-06-10 10:23:43 51°24.037 3°14.332 142.3 3.3 117 13.9
2010-06-10 10:24:43 51°24.01 3°14.41 147.6 3.5 122 13.9
2010-06-10 10:25:43 51°23.969 3°14.491 163.9 4.2 136 13.4
2010-06-10 10:26:43 51°23.908 3°14.532 205 3 168 13.8
2010-06-10 10:27:43 51°23.873 3°14.55 221 1.7 157 14.4
2010-06-10 10:28:43 51°23.853 3°14.57 235.2 1.3 139 14.6
2010-06-10 10:29:43 51°23.841 3°14.593 245.7 0.7 141 14.1
2010-06-10 10:30:43 51°23.855 3°14.573 312.5 2.8 346 14
2010-06-10 10:31:43 51°23.929 3°14.595 356.2 5.8 15 13.6
2010-06-10 10:32:43 51°24.03 3°14.669 18.1 7.3 32 13.5
2010-06-10 10:33:43 51°24.134 3°14.781 24.2 7.7 35 13.8
2010-06-10 10:34:43 51°24.246 3°14.934 33.7 9.9 42 15.3
2010-06-10 10:35:43 51°24.38 3°15.119 31.3 12.3 38 17.8
2010-06-10 10:36:43 51°24.579 3°15.295 12.4 13.7 15 20.6
2010-06-10 10:37:43 51°24.796 3°15.277 347 13 351 20.5
2010-06-10 10:38:43 51°24.968 3°15.133 302.7 11.5 302 18.2
2010-06-10 10:39:43 51°25.031 3°14.84 281.1 11.8 282 17.2
2010-06-10 10:40:42 51°25.065 3°14.533 279.9 11.9 279 16.3
2010-06-10 10:41:42 51°25.101 3°14.219 282.2 12 285 15.6
2010-06-10 10:42:43 51°25.164 3°13.907 288.7 12.2 290 14.8
2010-06-10 10:43:43 51°25.231 3°13.599 288.7 12.2 290 14
2010-06-10 10:44:43 51°25.298 3°13.29 289 12.3 290 13.1
2010-06-10 10:45:43 51°25.362 3°12.979 288.1 12.3 288 12.8
2010-06-10 10:46:42 51°25.424 3°12.669 288.2 12.5 287 12.5
2010-06-10 10:47:43 51°25.489 3°12.347 288.6 12.6 287 12
2010-06-10 10:48:43 51°25.551 3°12.027 288.2 12.6 287 11.5
2010-06-10 10:49:43 51°25.629 3°11.714 294.6 12.6 295 10.6
2010-06-10 10:50:42 51°25.752 3°11.453 315.1 12.6 317 9.8
2010-06-10 10:51:42 51°25.923 3°11.254 327.4 12.7 328 10
2010-06-10 10:52:42 51°26.104 3°11.078 333.3 12.7 341 10.4
2010-06-10 10:53:43 51°26.303 3°11.17 38.7 13.4 42 10.6
2010-06-10 10:54:42 51°26.445 3°11.446 53.2 13.8 54 11
2010-06-10 10:55:42 51°26.581 3°11.74 53.8 13.7 55 10.3
2010-06-10 10:56:43 51°26.719 3°12.041 53.7 13.7 54 10.3
2010-06-10 10:57:42 51°26.852 3°12.33 53.7 13.7 54 10.1
2010-06-10 10:58:42 51°26.979 3°12.635 59.1 13.7 60 10.4
2010-06-10 10:59:42 51°27.087 3°12.958 68.1 13.8 68 10.4
2010-06-10 11:00:42 51°27.094 3°13.317 103.1 13.6 108 10.2
2010-06-10 11:01:42 51°27.016 3°13.661 114 13.8 109 10.5
2010-06-10 11:02:42 51°26.974 3°14.012 95.8 12 92 10.7
2010-06-10 11:03:43 51°26.96 3°14.241 100.1 6.1 101 10.8
2010-06-10 11:04:42 51°26.945 3°14.317 133.9 1.3 120 10.5
2010-06-10 11:05:42 51°26.941 3°14.33 146.8 0.4 122 10.7
2010-06-10 11:06:42 51°26.936 3°14.34 148 0.5 134 10.6
2010-06-10 11:07:42 51°26.931 3°14.352 136.1 0.6 118 10.6
2010-06-10 11:08:42 51°26.925 3°14.366 126.1 0.6 121 10.6
2010-06-10 11:09:42 51°26.92 3°14.381 118.9 0.6 108 10.5
2010-06-10 11:10:42 51°26.915 3°14.397 113.2 0.7 107 10.7
2010-06-10 11:11:42 51°26.909 3°14.424 102.4 2.1 105 10.7
2010-06-10 11:12:43 51°26.931 3°14.508 41.9 4.5 38 10.6
2010-06-10 11:13:42 51°27.002 3°14.485 313 5.3 309 10.7
2010-06-10 11:14:42 51°27.032 3°14.374 289.1 3.8 290 10.6
2010-06-10 11:15:42 51°27.056 3°14.295 297.5 3.2 297 11.1
2010-06-10 11:16:43 51°27.086 3°14.226 310.4 3 312 10.6
2010-06-10 11:17:42 51°27.118 3°14.168 310.2 2.9 311 10.6
2010-06-10 11:18:42 51°27.153 3°14.106 311.3 3.3 313 10.8
2010-06-10 11:19:42 51°27.189 3°14.041 310.4 3.3 311 10.8
2010-06-10 11:20:42 51°27.227 3°13.973 311.3 3.5 312 10.7
2010-06-10 11:21:43 51°27.268 3°13.898 310 3.8 311 10.9
2010-06-10 11:22:42 51°27.309 3°13.823 310.1 3.7 311 10.9
2010-06-10 11:23:42 51°27.348 3°13.754 311 3.5 313 10.9
2010-06-10 11:24:42 51°27.386 3°13.685 306.3 3.4 308 10.8
2010-06-10 11:25:42 51°27.419 3°13.61 302.4 3.4 305 10.7
2010-06-10 11:26:42 51°27.451 3°13.533 302 3.5 304 11.1
2010-06-10 11:27:42 51°27.484 3°13.457 302.2 3.5 305 10.8
2010-06-10 11:28:42 51°27.517 3°13.381 303.5 3.5 305 11.2
2010-06-10 11:29:42 51°27.55 3°13.306 303.1 3.4 305 11.3
2010-06-10 11:30:42 51°27.583 3°13.231 302.7 3.5 304 11.4
2010-06-10 11:31:42 51°27.615 3°13.157 302.7 3.4 305 10.8
2010-06-10 11:32:42 51°27.647 3°13.082 303 3.4 304 11.4
2010-06-10 11:33:42 51°27.68 3°13.009 303.5 3.5 306 11.4
2010-06-10 11:34:42 51°27.713 3°12.936 303.6 3.4 307 11.2
2010-06-10 11:35:42 51°27.747 3°12.863 303.9 3.4 306 11.5
2010-06-10 11:36:43 51°27.781 3°12.789 302.8 3.5 307 11.1
2010-06-10 11:37:42 51°27.811 3°12.712 292.2 3.4 296 11.1
2010-06-10 11:38:42 51°27.833 3°12.627 287.6 3.4 291 11.4
2010-06-10 11:39:42 51°27.853 3°12.539 287.5 3.6 292 11.6
2010-06-10 11:40:42 51°27.873 3°12.451 283.1 3.4 288 11.2
2010-06-10 11:41:43 51°27.887 3°12.359 278.1 3.5 284 11.3
2010-06-10 11:42:42 51°27.899 3°12.27 276.9 3.4 280 11.8
2010-06-10 11:43:42 51°27.911 3°12.179 278.3 3.5 283 11.7
2010-06-10 11:44:42 51°27.927 3°12.089 285.9 3.5 293 11.5
2010-06-10 11:45:42 51°27.957 3°12.007 298.9 3.6 304 11.8
2010-06-10 11:46:42 51°27.992 3°11.932 302.3 3.5 307 12.2
2010-06-10 11:47:42 51°28.028 3°11.859 302 3.6 308 11.9
2010-06-10 11:48:42 51°28.062 3°11.782 299.2 3.5 304 11.9
2010-06-10 11:49:42 51°28.096 3°11.705 299.7 3.6 305 12.5
2010-06-10 11:50:42 51°28.131 3°11.629 300 3.5 306 12.7
2010-06-10 11:51:42 51°28.167 3°11.552 300.6 3.8 309 12.2
2010-06-10 11:52:43 51°28.215 3°11.476 321.1 4 328 12.7
2010-06-10 11:53:42 51°28.276 3°11.43 334.7 4.1 340 12.6
2010-06-10 11:54:42 51°28.342 3°11.4 348 4.1 351 13.1
2010-06-10 11:55:42 51°28.411 3°11.407 10.9 4.3 14 12.9
2010-06-10 11:56:42 51°28.481 3°11.448 21.7 4.7 22 12.8
2010-06-10 11:57:43 51°28.546 3°11.502 37.8 3.4 37 12.8
2010-06-10 11:58:42 51°28.575 3°11.552 55.8 2.1 55 13
2010-06-10 11:59:42 51°28.59 3°11.589 60.8 1.4 59 12.9
2010-06-10 12:00:42 51°28.6 3°11.615 62.2 0.9 61 12.8
2010-06-10 12:01:42 51°28.605 3°11.633 73.5 0.5 66 12.7
2010-06-10 12:02:42 51°28.607 3°11.651 92.1 1.5 77 12.8
2010-06-10 12:03:42 51°28.623 3°11.709 55.7 3 47 12.7
2010-06-10 12:04:42 51°28.681 3°11.736 344.4 4.1 344 12.8
2010-06-10 12:05:42 51°28.755 3°11.631 316.6 8.6 320 13.1
2010-06-10 12:06:42 51°28.885 3°11.448 312.2 11.7 314 14.1
2010-06-10 12:07:43 51°29.027 3°11.202 310 12.8 313 14.8
2010-06-10 12:08:43 51°29.172 3°10.945 309.6 13.1 312 15
2010-06-10 12:09:42 51°29.315 3°10.689 309.5 13 313 15.6
2010-06-10 12:10:42 51°29.462 3°10.429 309.3 13.1 312 17.6
2010-06-10 12:11:42 51°29.608 3°10.17 309.3 13.2 313 18.4
2010-06-10 12:12:43 51°29.756 3°9.907 309.5 13.1 312 18.8
2010-06-10 12:13:42 51°29.899 3°9.652 309.2 13.1 312 19.3
2010-06-10 12:14:42 51°30.045 3°9.393 309.1 13.1 311 19.5
2010-06-10 12:15:42 51°30.191 3°9.133 309.3 13.1 312 20
2010-06-10 12:16:42 51°30.337 3°8.876 310 13 312 20.6
2010-06-10 12:17:42 51°30.485 3°8.621 309.3 12.9 312 20.4
2010-06-10 12:18:42 51°30.631 3°8.366 309.1 13 313 24.2
2010-06-10 12:19:42 51°30.776 3°8.108 308.9 12.9 313 25.5
2010-06-10 12:20:42 51°30.921 3°7.852 309.2 13 313 26.5
2010-06-10 12:21:42 51°31.067 3°7.598 309.5 13 312 24.6
2010-06-10 12:22:42 51°31.213 3°7.34 309 13 312 24.3
2010-06-10 12:23:42 51°31.36 3°7.083 309.2 13.1 312 22.6
2010-06-10 12:24:43 51°31.508 3°6.819 309.4 13.1 312 26.4
2010-06-10 12:25:42 51°31.65 3°6.564 309.1 13 312 29.5
2010-06-10 12:26:42 51°31.796 3°6.309 309.7 13 312 32.1
2010-06-10 12:27:42 51°31.943 3°6.054 308.7 13 311 31
2010-06-10 12:28:43 51°32.092 3°5.795 309.2 13 313 30.8
2010-06-10 12:29:42 51°32.235 3°5.547 309.6 12.8 312 31.4
2010-06-10 12:30:42 51°32.379 3°5.292 309.3 12.9 312 30
2010-06-10 12:31:42 51°32.53 3°5.045 314.4 13.2 325 31.4
2010-06-10 12:32:42 51°32.731 3°4.899 335.6 12.9 336 32.4
2010-06-10 12:33:42 51°32.855 3°4.636 292.9 12.6 295 34.5
2010-06-10 12:34:42 51°32.934 3°4.324 291.4 12.7 293 30.7
2010-06-10 12:35:42 51°33.037 3°4.024 298.9 12.9 300 25.5
2010-06-10 12:36:42 51°33.149 3°3.731 298.1 13 301 22.4
2010-06-10 12:37:42 51°33.262 3°3.435 299.5 12.9 300 22.4
2010-06-10 12:38:42 51°33.385 3°3.151 304.4 13.1 306 23.9
2010-06-10 12:39:42 51°33.514 3°2.87 303.7 13.2 306 26.3
2010-06-10 12:40:42 51°33.642 3°2.586 303.5 13.1 307 32
2010-06-10 12:41:42 51°33.771 3°2.305 303.4 13.1 305 36.3
2010-06-10 12:42:42 51°33.9 3°2.026 303.4 13 310 35.9
2010-06-10 12:43:42 51°34.031 3°1.749 303.4 13 305 28.7
2010-06-10 12:44:42 51°34.152 3°1.464 295.5 12.9 298 20.8
2010-06-10 12:45:42 51°34.245 3°1.153 291.4 12.9 295 17.6
2010-06-10 12:46:42 51°34.334 3°0.835 291.9 13.2 295 16.3
2010-06-10 12:47:42 51°34.423 3°0.516 291.9 12.6 293 18.3
2010-06-10 12:48:43 51°34.507 3°0.278 307.5 7.9 314 21
2010-06-10 12:49:43 51°34.6 3°0.22 1.9 5 7 21.1
2010-06-10 12:50:43 51°34.656 3°0.267 50.5 3.1 45 21.8
2010-06-10 12:51:42 51°34.672 3°0.317 92.6 1.1 68 23.4
2010-06-10 12:52:42 51°34.679 3°0.327 119.3 0.4 47 23.3
2010-06-10 12:53:42 51°34.683 3°0.335 130.5 0.2 43 23.2
2010-06-10 12:54:43 51°34.686 3°0.341 131.3 0.2 44 23.1
2010-06-10 12:55:43 51°34.689 3°0.347 126.7 0.3 40 22.8
2010-06-10 12:56:42 51°34.692 3°0.353 126.6 0.3 40 22.9
2010-06-10 12:57:43 51°34.695 3°0.36 124.1 0.3 90 22
2010-06-10 12:58:42 51°34.678 3°0.393 161.9 2.5 157 20.4
2010-06-10 12:59:42 51°34.64 3°0.369 231.2 3.1 237 22.1
2010-06-10 13:00:42 51°34.62 3°0.266 257.4 4.1 266 22.5
2010-06-10 13:01:42 51°34.624 3°0.168 266.2 3.5 277 23.5
2010-06-10 13:02:42 51°34.629 3°0.072 265.1 3.7 275 24.7
2010-06-10 13:03:42 51°34.635 2°59.972 266.2 3.9 277 24.9
2010-06-10 13:04:43 51°34.628 2°59.878 240.5 3.2 245 24.1
2010-06-10 13:05:42 51°34.588 2°59.82 211.6 3.7 215 26.4
2010-06-10 13:06:42 51°34.538 2°59.751 221.6 3.9 227 23.7
2010-06-10 13:07:42 51°34.492 2°59.679 220.3 3.8 221 24.2
2010-06-10 13:08:42 51°34.443 2°59.612 215.2 3.8 222 25.7
2010-06-10 13:09:42 51°34.392 2°59.551 215.7 3.8 213 25
2010-06-10 13:10:42 51°34.342 2°59.492 212.6 3.8 213 24.9
2010-06-10 13:11:43 51°34.287 2°59.439 207.3 3.8 210 22.6
2010-06-10 13:12:42 51°34.233 2°59.391 206.9 3.8 212 21.8
2010-06-10 13:13:42 51°34.178 2°59.342 207.9 3.8 207 23.8
2010-06-10 13:14:42 51°34.123 2°59.292 207.4 3.8 211 23.9
2010-06-10 13:15:42 51°34.068 2°59.242 207.4 3.8 210 23.5
2010-06-10 13:16:42 51°34.014 2°59.19 208.7 3.8 210 23.4
2010-06-10 13:17:42 51°33.959 2°59.139 208 3.8 208 23.4
2010-06-10 13:18:42 51°33.904 2°59.086 208.2 3.9 209 20.1
2010-06-10 13:19:42 51°33.849 2°59.033 208.4 3.8 211 22.4
2010-06-10 13:20:42 51°33.796 2°58.98 208.3 3.7 212 22
2010-06-10 13:21:42 51°33.742 2°58.926 208.4 3.9 212 21.5
2010-06-10 13:22:42 51°33.688 2°58.87 208.9 3.9 212 20.9
2010-06-10 13:23:42 51°33.633 2°58.813 208.7 3.9 212 21.8
2010-06-10 13:24:42 51°33.579 2°58.757 208.2 3.9 211 19.7
2010-06-10 13:25:42 51°33.525 2°58.703 208.2 3.9 213 19.4
2010-06-10 13:26:42 51°33.477 2°58.635 220 3.9 225 19.2
2010-06-10 13:27:42 51°33.432 2°58.557 221 4 229 17.4
2010-06-10 13:28:42 51°33.387 2°58.479 221.3 4 228 20.8
2010-06-10 13:29:42 51°33.34 2°58.403 219.6 4 225 19.5
2010-06-10 13:30:42 51°33.299 2°58.316 231.5 4.1 240 20.1
2010-06-10 13:31:42 51°33.266 2°58.221 234.6 4 239 20.1
2010-06-10 13:32:42 51°33.232 2°58.13 232.7 3.9 238 20
2010-06-10 13:33:42 51°33.197 2°58.039 232.9 4 239 20.3
2010-06-10 13:34:42 51°33.168 2°57.941 244.6 4.2 256 18.9
2010-06-10 13:35:42 51°33.167 2°57.828 272.3 4.5 283 21
2010-06-10 13:36:42 51°33.195 2°57.718 290.8 4.4 299 20.8
2010-06-10 13:37:42 51°33.24 2°57.622 310.4 4.5 316 22.9
2010-06-10 13:38:42 51°33.306 2°57.559 335.5 4.6 338 24.7
2010-06-10 13:39:42 51°33.38 2°57.526 351.7 4.6 351 24.8
2010-06-10 13:40:42 51°33.455 2°57.523 8.8 4.5 7 23
2010-06-10 13:41:42 51°33.522 2°57.566 39.6 4.4 38 25.7
2010-06-10 13:42:42 51°33.552 2°57.661 96.3 3.2 88 25.2
2010-06-10 13:43:42 51°33.547 2°57.725 113 1.9 103 24.3
2010-06-10 13:44:42 51°33.542 2°57.767 111.2 1.3 91 23.1
2010-06-10 13:45:42 51°33.542 2°57.795 110.2 0.8 87 24.5
2010-06-10 13:46:42 51°33.544 2°57.815 105.7 0.6 77 24.4
2010-06-10 13:47:42 51°33.547 2°57.832 100.3 0.9 85 25.5
2010-06-10 13:48:42 51°33.536 2°57.883 134.4 3.1 137 24.6
2010-06-10 13:49:43 51°33.441 2°57.921 171.6 8.9 173 22.7
2010-06-10 13:50:43 51°33.264 2°57.976 169.1 11.7 170 21.2
2010-06-10 13:51:43 51°33.066 2°58.032 171.4 12.2 172 16.6
2010-06-10 13:52:42 51°32.865 2°58.085 171 12.8 169 18.5
2010-06-10 13:53:43 51°32.656 2°58.138 171.4 12.2 172 18
2010-06-10 13:54:42 51°32.458 2°58.192 170.8 12.6 168 16.7
2010-06-10 13:55:43 51°32.252 2°58.219 178.4 12.6 178 21.6
2010-06-10 13:56:41 51°32.067 2°58.141 211.1 12.5 220 31.7
2010-06-10 13:57:42 51°31.893 2°57.953 213.6 12.4 221 34.9
2010-06-10 13:58:43 51°31.725 2°57.75 215 12.5 222 37
2010-06-10 13:59:42 51°31.557 2°57.564 214 12.4 211 35.2
2010-06-10 14:00:43 51°31.39 2°57.363 215.8 12.7 218 32.2
2010-06-10 14:01:42 51°31.224 2°57.17 213.5 12.5 216 33.3
2010-06-10 14:02:43 51°31.055 2°56.973 214.5 12.8 216 32.1
2010-06-10 14:03:42 51°30.89 2°56.779 213.5 12.6 218 32.6
2010-06-10 14:04:42 51°30.722 2°56.58 214.9 12.9 219 32.2
2010-06-10 14:05:42 51°30.555 2°56.374 215.3 12.4 218 31.2
2010-06-10 14:06:42 51°30.389 2°56.174 217.4 12.4 216 31.1
2010-06-10 14:07:42 51°30.218 2°55.976 215 12.9 224 31.3
2010-06-10 14:08:43 51°30.047 2°55.769 214.4 12.7 222 31
2010-06-10 14:09:43 51°29.875 2°55.567 215 12.9 216 30.2
2010-06-10 14:10:42 51°29.703 2°55.37 214.7 12.9 214 28.9
2010-06-10 14:11:43 51°29.528 2°55.164 216 12.9 220 28
2010-06-10 14:12:42 51°29.356 2°54.965 215 13 218 27.4
2010-06-10 14:13:42 51°29.184 2°54.763 214.2 13.1 219 27.8
2010-06-10 14:14:42 51°29.012 2°54.565 214.3 12.6 219 26.5
2010-06-10 14:15:42 51°28.84 2°54.37 215.1 12.7 218 25.8
2010-06-10 14:16:43 51°28.665 2°54.164 219 12.5 219 24.7
2010-06-10 14:17:42 51°28.496 2°53.965 215.7 13 218 24
2010-06-10 14:18:43 51°28.32 2°53.758 217.1 12.9 215 22
2010-06-10 14:19:42 51°28.154 2°53.543 225.1 12.8 223 20.8
2010-06-10 14:20:43 51°28.014 2°53.266 231 13.3 235 20.9
2010-06-10 14:21:42 51°27.88 2°52.996 229.5 13.4 233 21.6
2010-06-10 14:22:42 51°27.743 2°52.721 228.6 13.1 232 20.5
2010-06-10 14:23:41 51°27.614 2°52.455 231.8 12.9 227 20.3
2010-06-10 14:24:42 51°27.476 2°52.182 230.4 12.8 230 20.7
2010-06-10 14:25:43 51°27.337 2°51.907 230.4 12.9 234 20.1
2010-06-10 14:26:42 51°27.199 2°51.649 228.7 13 234 22.9
2010-06-10 14:27:43 51°27.057 2°51.384 229.7 13 226 20.5
2010-06-10 14:28:41 51°26.927 2°51.119 231.1 12.9 232 21.7
2010-06-10 14:29:43 51°26.783 2°50.839 230.2 13.4 231 22.8
2010-06-10 14:30:41 51°26.643 2°50.578 227.5 13.5 238 23.2
2010-06-10 14:31:43 51°26.496 2°50.297 228.4 13.2 229 23.2
2010-06-10 14:32:42 51°26.358 2°50.034 230 13.2 230 23.4
2010-06-10 14:33:42 51°26.208 2°49.777 223.6 13.2 214 23.3
2010-06-10 14:34:42 51°26.022 2°49.593 206.2 13.5 207 23.5
2010-06-10 14:35:42 51°25.827 2°49.433 207.4 13 209 23.1
2010-06-10 14:36:42 51°25.632 2°49.271 207.6 13.6 205 23.3
2010-06-10 14:37:43 51°25.462 2°49.036 232.8 13.4 234 23.9
2010-06-10 14:38:43 51°25.346 2°48.756 238.7 12 237 26.8
2010-06-10 14:39:42 51°25.247 2°48.504 238.1 9.4 238 29.5
2010-06-10 14:40:42 51°25.182 2°48.336 236.7 5.9 232 29.9
2010-06-10 14:41:42 51°25.115 2°48.3 165.6 3.6 169 30
2010-06-10 14:42:42 51°25.061 2°48.35 144.8 4.1 149 29.5
2010-06-10 14:43:41 51°25.015 2°48.425 119.9 3.9 126 27.2
2010-06-10 14:44:43 51°24.998 2°48.464 97.9 0.5 172 26.6
2010-06-10 14:45:43 51°24.988 2°48.463 100.9 0.6 186 25.9
2010-06-10 14:46:42 51°24.978 2°48.465 100.3 0.5 166 25.7
2010-06-10 14:47:43 51°24.967 2°48.468 98.9 0.6 168 25.1
2010-06-10 14:48:42 51°24.957 2°48.47 95.8 0.6 177 25.3
2010-06-10 14:49:42 51°24.948 2°48.468 97.4 0.4 192 24.9
2010-06-10 14:50:42 51°24.939 2°48.467 99.1 0.4 177 25.5
2010-06-10 14:51:42 51°24.93 2°48.468 100 0.5 179 25.4
2010-06-10 14:52:42 51°24.926 2°48.547 78.7 6 79 25.2
2010-06-10 14:53:42 51°24.97 2°48.743 66.1 7.9 55 24.7
2010-06-10 14:54:42 51°25.047 2°48.765 333.5 4.3 321 25.3
2010-06-10 14:55:42 51°25.062 2°48.652 270.9 4.8 267 25.9
2010-06-10 14:56:42 51°25.063 2°48.537 279.1 3.8 273 27.2
2010-06-10 14:57:42 51°25.067 2°48.445 283.9 3.3 276 27.5
2010-06-10 14:58:42 51°25.073 2°48.357 285.7 3.3 277 28.7
2010-06-10 14:59:42 51°25.08 2°48.269 286.8 3.5 273 29.5
2010-06-10 15:00:42 51°25.086 2°48.185 288.4 3.2 279 29.9
2010-06-10 15:01:42 51°25.094 2°48.093 285.5 3.8 275 29.5
2010-06-10 15:02:42 51°25.1 2°47.995 282.4 3.9 274 28.9
2010-06-10 15:03:42 51°25.098 2°47.892 266.8 3.9 262 28.8
2010-06-10 15:04:42 51°25.078 2°47.786 251.6 4.2 248 27.9
2010-06-10 15:05:42 51°25.043 2°47.69 231.6 4.2 229 28.2
2010-06-10 15:06:42 51°24.993 2°47.609 219.9 4.3 223 29.2
2010-06-10 15:07:42 51°24.94 2°47.53 223.1 4.3 222 30.7
2010-06-10 15:08:42 51°24.891 2°47.446 229 4.3 230 30.8
2010-06-10 15:09:42 51°24.847 2°47.355 233.4 4.2 232 29.9
2010-06-10 15:10:42 51°24.801 2°47.269 224.9 4.3 226 30.1
2010-06-10 15:11:42 51°24.75 2°47.19 221.8 4.3 225 29.9
2010-06-10 15:12:42 51°24.7 2°47.11 223 4.3 225 30.2
2010-06-10 15:13:42 51°24.65 2°47.029 224.4 4.3 225 29.9
2010-06-10 15:14:42 51°24.602 2°46.944 228.6 4.4 232 31.1
2010-06-10 15:15:42 51°24.556 2°46.854 229.4 4.4 231 30.2
2010-06-10 15:16:42 51°24.511 2°46.764 230.2 4.4 231 29.9
2010-06-10 15:17:42 51°24.466 2°46.673 229.8 4.3 231 29.3
2010-06-10 15:18:42 51°24.421 2°46.583 230.1 4.4 232 28.5
2010-06-10 15:19:42 51°24.375 2°46.493 229.7 4.4 230 26.7
2010-06-10 15:20:42 51°24.33 2°46.402 229.3 4.3 232 26
2010-06-10 15:21:42 51°24.287 2°46.315 230.5 4.2 231 29.6
2010-06-10 15:22:42 51°24.244 2°46.228 230 4.1 230 28.5
2010-06-10 15:23:42 51°24.201 2°46.14 229.7 4.2 230 25.7
2010-06-10 15:24:42 51°24.158 2°46.051 229.4 4.2 232 29.6
2010-06-10 15:25:42 51°24.116 2°45.963 229.7 4.2 232 28.2
2010-06-10 15:26:42 51°24.073 2°45.875 228.8 4.2 232 26.9
2010-06-10 15:27:42 51°24.03 2°45.786 229.3 4.2 233 26.5
2010-06-10 15:28:42 51°23.988 2°45.697 234.5 4.2 237 26.5
2010-06-10 15:29:42 51°23.959 2°45.597 257 4.1 254 27
2010-06-10 15:30:42 51°23.951 2°45.492 274.2 3.9 267 26.7
2010-06-10 15:31:42 51°23.951 2°45.389 282.2 3.8 272 26
2010-06-10 15:32:42 51°23.96 2°45.292 297.4 3.6 284 25.9
2010-06-10 15:33:42 51°23.978 2°45.207 311.8 3.3 296 26.4
2010-06-10 15:34:42 51°24.004 2°45.142 337.4 2.7 312 26
2010-06-10 15:35:42 51°24.036 2°45.099 358.1 2.2 333 26.1
2010-06-10 15:36:42 51°24.056 2°45.082 20.8 0.9 316 26.3
2010-06-10 15:37:42 51°24.059 2°45.066 27.1 0.6 257 25.9
2010-06-10 15:38:42 51°24.052 2°45.047 40.2 1 230 24.3
2010-06-10 15:39:42 51°24.043 2°45.037 72.7 0.9 118 25.8
2010-06-10 15:40:42 51°24.016 2°45.086 120.9 4.7 130 26.1
2010-06-10 15:41:42 51°23.958 2°45.267 110 10.3 114 26
2010-06-10 15:42:42 51°23.879 2°45.561 111.7 12.6 109 26.3
2010-06-10 15:43:42 51°23.79 2°45.866 112.9 12.8 108 26.4
2010-06-10 15:44:42 51°23.7 2°46.169 112.6 12.8 117 27.9
2010-06-10 15:45:42 51°23.61 2°46.477 112.6 12.8 115 25.5
2010-06-10 15:46:42 51°23.509 2°46.776 118.4 12.8 131 25.1
2010-06-10 15:47:42 51°23.355 2°47.014 137.5 13 140 22.7
2010-06-10 15:48:42 51°23.173 2°47.213 142.9 13.2 143 18.1
2010-06-10 15:49:42 51°22.985 2°47.405 142 13.3 149 18.7
2010-06-10 15:50:42 51°22.8 2°47.603 140.6 13.3 149 19
2010-06-10 15:51:42 51°22.618 2°47.808 141.8 13.2 146 17.8
2010-06-10 15:52:42 51°22.435 2°48.008 140.9 13.4 151 11.4
2010-06-10 15:53:42 51°22.254 2°48.21 138.8 13 148 21.2
2010-06-10 15:54:42 51°22.072 2°48.41 141.7 13.4 148 23.3
2010-06-10 15:55:42 51°21.897 2°48.612 140.1 13 142 22.8
2010-06-10 15:56:42 51°21.718 2°48.812 141.9 13.2 146 22.5
2010-06-10 15:57:42 51°21.541 2°49.016 140.3 12.9 142 21.1
2010-06-10 15:58:42 51°21.361 2°49.211 143.7 13.3 146 20.8
2010-06-10 15:59:42 51°21.17 2°49.395 146.2 13.4 150 21.4
2010-06-10 16:00:42 51°20.979 2°49.572 144.5 13.2 153 22.2
2010-06-10 16:01:42 51°20.788 2°49.749 144.3 13 151 22
2010-06-10 16:02:42 51°20.599 2°49.926 144.3 13.2 144 21.5
2010-06-10 16:03:42 51°20.414 2°50.104 143.6 12.8 150 18.7
2010-06-10 16:04:42 51°20.218 2°50.257 148.6 13.2 152 15.8
2010-06-10 16:05:42 51°20.023 2°50.402 149.3 12.7 151 14.7
2010-06-10 16:06:42 51°19.83 2°50.549 147.5 12.6 158 11.9
2010-06-10 16:08:10 51°19.533 2°50.735 151.9 13.2 158 11.5
2010-06-10 16:09:49 51°19.2 2°50.97 149.6 13.3 153 13.8
2010-06-10 16:10:49 51°18.998 2°51.113 149.7 13.5 153 14
2010-06-10 16:11:49 51°18.795 2°51.256 150 13.3 156 13.6
2010-06-10 16:12:49 51°18.594 2°51.401 149.9 13.3 158 12.8
2010-06-10 16:13:49 51°18.393 2°51.547 149.6 13 156 11.5
2010-06-10 16:14:49 51°18.193 2°51.693 148.8 13.1 152 10.5
2010-06-10 16:15:49 51°17.989 2°51.821 151.8 13.5 158 9.6
2010-06-10 16:16:49 51°17.782 2°51.952 152.1 13.6 158 9
2010-06-10 16:17:49 51°17.572 2°52.087 153 13.9 161 10.3
2010-06-10 16:18:49 51°17.359 2°52.22 151.7 13.9 158 10.3
2010-06-10 16:19:49 51°17.148 2°52.351 153 13.4 160 9
2010-06-10 16:20:49 51°16.94 2°52.487 151.3 12.9 160 8.6
2010-06-10 16:21:49 51°16.736 2°52.639 147.6 13.5 153 8.8
2010-06-10 16:22:49 51°16.529 2°52.797 149.2 14 154 10.5
2010-06-10 16:23:49 51°16.326 2°52.958 146 13.6 150 10.9
2010-06-10 16:24:49 51°16.129 2°53.121 145.2 13.7 153 10.9
2010-06-10 16:25:49 51°15.937 2°53.296 143.5 13.5 151 10.7
2010-06-10 16:26:49 51°15.749 2°53.483 141.1 13.5 145 10.3
2010-06-10 16:27:49 51°15.564 2°53.68 139.9 13.3 146 9.8
2010-06-10 16:28:49 51°15.388 2°53.883 136.8 12.5 146 8.9
2010-06-10 16:29:49 51°15.218 2°54.098 132.9 12.8 139 8.5
2010-06-10 16:30:49 51°15.066 2°54.337 130.9 12.9 141 8.5
2010-06-10 16:31:49 51°14.89 2°54.545 142.1 13.2 148 10.1
2010-06-10 16:32:49 51°14.708 2°54.734 141.1 13.1 146 11.1
2010-06-10 16:33:49 51°14.539 2°54.941 137.6 12.9 144 10.3
2010-06-10 16:34:49 51°14.372 2°55.149 142 12.6 144 8.9
2010-06-10 16:35:49 51°14.226 2°55.326 142.2 9.9 143 10
2010-06-10 16:36:49 51°14.085 2°55.445 155.1 9.7 156 9.3
2010-06-10 16:37:49 51°13.94 2°55.55 155.2 8.9 156 10.1
2010-06-10 16:38:49 51°13.818 2°55.642 150.4 7.4 149 10.4
2010-06-10 16:39:49 51°13.734 2°55.76 131 6.1 131 10.9
2010-06-10 16:40:49 51°13.685 2°55.868 117.7 4.1 119 7.4
2010-06-10 16:41:49 51°13.668 2°55.947 106.8 1.4 108 5.2